createdAt,value
2023-02-11T00:00:55.456Z,98284.22
2023-02-11T00:03:53.330Z,98273.47
2023-02-11T00:06:50.155Z,98271.72
2023-02-11T00:09:47.000Z,98275.88
2023-02-11T00:12:47.085Z,98273.50
2023-02-11T00:15:43.922Z,98272.91
2023-02-11T00:18:40.765Z,98278.06
2023-02-11T00:21:37.618Z,98282.13
2023-02-11T00:24:35.940Z,98281.03
2023-02-11T00:27:33.369Z,98276.00
2023-02-11T00:30:30.246Z,98269.22
2023-02-11T00:33:27.134Z,98269.38
2023-02-11T00:36:27.687Z,98270.47
2023-02-11T00:39:24.972Z,98268.19
2023-02-11T00:42:21.780Z,98264.41
2023-02-11T00:45:20.924Z,98266.84
2023-02-11T00:48:17.870Z,98253.63
2023-02-11T00:51:15.088Z,98255.72
2023-02-11T00:54:12.023Z,98258.44
2023-02-11T00:57:08.888Z,98255.44
2023-02-11T01:00:07.464Z,98254.06
2023-02-11T01:03:04.370Z,98241.84
2023-02-11T01:06:01.311Z,98239.56
2023-02-11T01:08:58.189Z,98223.66
2023-02-11T01:11:55.085Z,98222.38
2023-02-11T01:14:52.162Z,98204.31
2023-02-11T01:17:49.079Z,98210.84
2023-02-11T01:20:45.929Z,98204.31
2023-02-11T01:23:42.823Z,98200.06
2023-02-11T01:26:39.671Z,98190.84
2023-02-11T01:29:36.647Z,98205.41
2023-02-11T01:32:33.939Z,98183.78
2023-02-11T01:35:30.784Z,98197.16
2023-02-11T01:38:27.647Z,98187.28
2023-02-11T01:41:24.546Z,98185.81
2023-02-11T01:44:35.506Z,98176.78
2023-02-11T01:47:32.338Z,98183.09
2023-02-11T01:50:29.364Z,98167.91
2023-02-11T01:53:48.430Z,98166.00
2023-02-11T01:57:10.305Z,98175.97
2023-02-11T02:00:17.051Z,98171.25
2023-02-11T02:03:20.217Z,98172.72
2023-02-11T02:06:25.898Z,98170.09
2023-02-11T02:09:28.385Z,98158.25
2023-02-11T02:12:25.230Z,98165.53
2023-02-11T02:15:35.096Z,98160.97
2023-02-11T02:19:03.184Z,98162.94
2023-02-11T02:23:09.585Z,98165.53
2023-02-11T02:26:37.306Z,98159.69
2023-02-11T02:30:20.036Z,98168.19
2023-02-11T02:33:37.801Z,98155.13
2023-02-11T02:36:50.412Z,98158.50
2023-02-11T02:39:50.344Z,98151.41
2023-02-11T02:42:49.528Z,98151.06
2023-02-11T02:45:46.360Z,98150.69
2023-02-11T02:48:44.379Z,98146.69
2023-02-11T02:52:15.285Z,98137.13
2023-02-11T02:55:38.606Z,98132.09
2023-02-11T02:59:20.810Z,98143.28
2023-02-11T03:02:40.281Z,98124.00
2023-02-11T03:05:53.500Z,98119.88
2023-02-11T03:09:33.602Z,98126.06
2023-02-11T03:12:33.190Z,98118.00
2023-02-11T03:15:37.212Z,98108.88
2023-02-11T03:18:38.077Z,98107.53
2023-02-11T03:21:40.114Z,98093.53
2023-02-11T03:24:40.052Z,98076.53
2023-02-11T03:27:52.631Z,98057.78
2023-02-11T03:31:02.993Z,98078.59
2023-02-11T03:34:16.320Z,98084.28
2023-02-11T03:37:29.800Z,98096.06
2023-02-11T03:40:32.576Z,98091.16
2023-02-11T03:43:37.034Z,98096.47
2023-02-11T03:46:41.955Z,98103.91
2023-02-11T03:49:41.683Z,98099.91
2023-02-11T03:52:39.277Z,98095.41
2023-02-11T03:55:39.963Z,98093.44
2023-02-11T03:58:36.923Z,98089.75
2023-02-11T04:01:33.869Z,98090.41
2023-02-11T04:04:30.767Z,98080.84
2023-02-11T04:07:28.268Z,98068.56
2023-02-11T04:10:25.510Z,98066.31
2023-02-11T04:13:22.515Z,98062.06
2023-02-11T04:16:19.481Z,98065.50
2023-02-11T04:19:16.326Z,98067.50
2023-02-11T04:22:13.210Z,98074.81
2023-02-11T04:25:10.983Z,98075.16
2023-02-11T04:28:07.829Z,98073.41
2023-02-11T04:31:04.906Z,98081.72
2023-02-11T04:34:01.851Z,98083.94
2023-02-11T04:36:58.696Z,98080.34
2023-02-11T04:39:55.564Z,98087.81
2023-02-11T04:42:52.608Z,98085.41
2023-02-11T04:45:49.830Z,98079.50
2023-02-11T04:48:46.921Z,98071.75
2023-02-11T04:51:47.590Z,98057.84
2023-02-11T04:54:45.787Z,98060.06
2023-02-11T04:57:42.630Z,98057.28
2023-02-11T05:00:39.458Z,98059.31
2023-02-11T05:03:37.195Z,98052.38
2023-02-11T05:06:34.081Z,98058.91
2023-02-11T05:09:30.928Z,98057.72
2023-02-11T05:12:27.776Z,98054.09
2023-02-11T05:15:24.669Z,98061.97
2023-02-11T05:18:21.862Z,98056.94
2023-02-11T05:21:19.820Z,98050.59
2023-02-11T05:24:16.634Z,98056.31
2023-02-11T05:27:13.538Z,98049.59
2023-02-11T05:30:11.673Z,98049.22
2023-02-11T05:33:08.533Z,98045.38
2023-02-11T05:36:10.358Z,98052.00
2023-02-11T05:39:07.172Z,98052.44
2023-02-11T05:42:04.898Z,98056.72
2023-02-11T05:45:02.093Z,98049.84
2023-02-11T05:47:58.937Z,98057.28
2023-02-11T05:50:55.770Z,98050.22
2023-02-11T05:53:53.679Z,98052.22
2023-02-11T05:56:50.607Z,98047.97
2023-02-11T05:59:48.094Z,98059.75
2023-02-11T06:02:45.108Z,98061.53
2023-02-11T06:05:44.320Z,98057.53
2023-02-11T06:08:41.662Z,98062.78
2023-02-11T06:11:38.798Z,98065.19
2023-02-11T06:14:35.620Z,98064.81
2023-02-11T06:17:33.709Z,98052.03
2023-02-11T06:20:30.557Z,98055.50
2023-02-11T06:23:30.001Z,98052.28
2023-02-11T06:26:27.202Z,98045.19
2023-02-11T06:29:24.018Z,98047.06
2023-02-11T06:32:42.166Z,98040.50
2023-02-11T06:35:40.900Z,98041.16
2023-02-11T06:38:37.943Z,98053.69
2023-02-11T06:41:34.817Z,98049.13
2023-02-11T06:44:32.074Z,98049.47
2023-02-11T06:47:28.902Z,98063.84
2023-02-11T06:50:25.736Z,98052.78
2023-02-11T06:53:22.608Z,98054.78
2023-02-11T06:56:22.675Z,98064.31
2023-02-11T06:59:20.697Z,98050.53
2023-02-11T07:02:20.413Z,98053.97
2023-02-11T07:05:20.178Z,98056.63
2023-02-11T07:08:17.026Z,98052.19
2023-02-11T07:11:24.183Z,98050.41
2023-02-11T07:14:21.086Z,98059.53
2023-02-11T07:17:17.981Z,98054.47
2023-02-11T07:20:15.012Z,98079.16
2023-02-11T07:23:11.843Z,98080.63
2023-02-11T07:26:12.242Z,98088.28
2023-02-11T07:29:09.082Z,98084.47
2023-02-11T07:32:06.807Z,98082.88
2023-02-11T07:35:04.162Z,98080.41
2023-02-11T07:38:01.042Z,98067.88
2023-02-11T07:41:02.258Z,98066.88
2023-02-11T07:43:59.232Z,98060.81
2023-02-11T07:46:56.738Z,98058.56
2023-02-11T07:49:56.479Z,98066.28
2023-02-11T07:52:53.834Z,98073.75
2023-02-11T07:55:51.812Z,98074.19
2023-02-11T07:58:49.297Z,98067.31
2023-02-11T08:01:46.329Z,98067.50
2023-02-11T08:04:45.454Z,98081.09
2023-02-11T08:07:42.429Z,98080.09
2023-02-11T08:10:39.314Z,98058.41
2023-02-11T08:13:36.979Z,98064.47
2023-02-11T08:16:36.471Z,98069.34
2023-02-11T08:19:35.233Z,98080.34
2023-02-11T08:22:34.018Z,98081.94
2023-02-11T08:25:30.864Z,98093.28
2023-02-11T08:28:27.969Z,98090.47
2023-02-11T08:31:34.788Z,98092.25
2023-02-11T08:34:31.693Z,98091.88
2023-02-11T08:37:28.906Z,98101.66
2023-02-11T08:40:26.672Z,98093.94
2023-02-11T08:43:23.614Z,98087.22
2023-02-11T08:46:21.246Z,98081.38
2023-02-11T08:49:18.384Z,98091.31
2023-02-11T08:52:15.236Z,98088.47
2023-02-11T08:55:12.063Z,98094.78
2023-02-11T08:58:09.293Z,98098.44
2023-02-11T09:01:31.115Z,98103.53
2023-02-11T09:04:28.002Z,98108.78
2023-02-11T09:07:24.836Z,98107.78
2023-02-11T09:10:21.663Z,98103.53
2023-02-11T09:13:18.661Z,98105.13
2023-02-11T09:16:22.500Z,98098.81
2023-02-11T09:19:19.904Z,98096.56
2023-02-11T09:22:16.732Z,98112.22
2023-02-11T09:25:13.619Z,98114.84
2023-02-11T09:28:12.780Z,98108.75
2023-02-11T09:31:15.138Z,98098.41
2023-02-11T09:34:13.090Z,98110.78
2023-02-11T09:37:11.092Z,98123.38
2023-02-11T09:40:09.031Z,98121.94
2023-02-11T09:43:22.077Z,98116.47
2023-02-11T09:46:20.323Z,98133.94
2023-02-11T09:49:26.371Z,98131.06
2023-02-11T09:52:50.074Z,98126.03
2023-02-11T09:55:55.607Z,98127.66
2023-02-11T09:58:52.458Z,98121.38
2023-02-11T10:01:58.817Z,98123.00
2023-02-11T10:05:31.285Z,98121.19
2023-02-11T10:09:12.747Z,98128.06
2023-02-11T10:12:18.230Z,98121.38
2023-02-11T10:15:27.424Z,98121.38
2023-02-11T10:18:56.835Z,98119.56
2023-02-11T10:22:03.515Z,98128.88
2023-02-11T10:25:06.552Z,98123.00
2023-02-11T10:28:20.941Z,98129.06
2023-02-11T10:31:41.120Z,98136.38
2023-02-11T10:34:41.823Z,98139.44
2023-02-11T10:37:38.561Z,98142.06
2023-02-11T10:40:35.439Z,98138.03
2023-02-11T10:43:34.571Z,98138.44
2023-02-11T10:46:36.938Z,98142.91
2023-02-11T10:49:39.931Z,98148.34
2023-02-11T10:52:36.775Z,98144.53
2023-02-11T10:55:33.688Z,98148.97
2023-02-11T10:58:56.068Z,98146.31
2023-02-11T11:02:04.713Z,98145.94
2023-02-11T11:05:17.200Z,98147.53
2023-02-11T11:08:15.833Z,98152.00
2023-02-11T11:11:18.801Z,98151.63
2023-02-11T11:14:20.711Z,98152.81
2023-02-11T11:17:19.617Z,98144.91
2023-02-11T11:20:27.529Z,98151.63
2023-02-11T11:23:25.374Z,98158.31
2023-02-11T11:26:23.687Z,98148.75
2023-02-11T11:29:48.214Z,98137.81
2023-02-11T11:32:45.715Z,98143.50
2023-02-11T11:35:42.762Z,98152.44
2023-02-11T11:38:58.257Z,98146.34
2023-02-11T11:41:59.622Z,98146.94
2023-02-11T11:45:30.278Z,98149.78
2023-02-11T11:48:42.196Z,98143.06
2023-02-11T11:51:45.573Z,98146.13
2023-02-11T11:54:53.574Z,98133.94
2023-02-11T11:57:51.118Z,98132.53
2023-02-11T12:01:26.221Z,98140.03
2023-02-11T12:04:50.775Z,98132.91
2023-02-11T12:07:50.900Z,98140.63
2023-02-11T12:11:13.971Z,98122.97
2023-02-11T12:14:35.591Z,98125.59
2023-02-11T12:17:52.152Z,98130.66
2023-02-11T12:21:22.430Z,98129.69
2023-02-11T12:25:02.933Z,98130.44
2023-02-11T12:28:58.631Z,98129.63
2023-02-11T12:32:36.401Z,98123.59
2023-02-11T12:36:15.102Z,98129.03
2023-02-11T12:39:50.382Z,98136.31
2023-02-11T12:43:21.645Z,98147.09
2023-02-11T12:46:48.925Z,98136.91
2023-02-11T12:50:22.834Z,98130.00
2023-02-11T12:53:56.589Z,98138.56
2023-02-11T12:56:55.806Z,98126.16
2023-02-11T13:00:22.287Z,98130.28
2023-02-11T13:03:28.644Z,98126.56
2023-02-11T13:06:52.334Z,98114.81
2023-02-11T13:10:02.153Z,98116.00
2023-02-11T13:13:19.031Z,98123.75
2023-02-11T13:16:36.319Z,98117.38
2023-02-11T13:19:42.451Z,98119.44
2023-02-11T13:22:48.938Z,98124.50
2023-02-11T13:26:04.278Z,98119.03
2023-02-11T13:29:36.290Z,98121.06
2023-02-11T13:33:31.798Z,98125.91
2023-02-11T13:36:32.789Z,98116.38
2023-02-11T13:39:29.993Z,98122.44
2023-02-11T13:42:28.483Z,98121.28
2023-02-11T13:45:48.905Z,98113.66
2023-02-11T13:48:52.991Z,98118.19
2023-02-11T13:51:51.291Z,98115.28
2023-02-11T13:54:51.700Z,98127.88
2023-02-11T13:58:08.374Z,98121.69
2023-02-11T14:01:06.099Z,98121.53
2023-02-11T14:04:42.468Z,98118.47
2023-02-11T14:08:12.240Z,98122.59
2023-02-11T14:11:32.646Z,98126.50
2023-02-11T14:14:33.848Z,98122.63
2023-02-11T14:17:34.134Z,98114.22
2023-02-11T14:20:39.565Z,98115.28
2023-02-11T14:23:37.458Z,98115.34
2023-02-11T14:26:54.736Z,98115.41
2023-02-11T14:30:09.801Z,98109.25
2023-02-11T14:33:45.841Z,98113.34
2023-02-11T14:36:58.804Z,98112.69
2023-02-11T14:40:30.830Z,98115.56
2023-02-11T14:43:46.858Z,98120.47
2023-02-11T14:46:50.033Z,98133.19
2023-02-11T14:49:48.313Z,98132.88
2023-02-11T14:52:45.627Z,98135.91
2023-02-11T14:55:45.658Z,98131.03
2023-02-11T14:58:48.286Z,98136.09
2023-02-11T15:01:51.795Z,98133.69
2023-02-11T15:04:48.738Z,98125.75
2023-02-11T15:08:07.383Z,98132.44
2023-02-11T15:11:13.138Z,98138.38
2023-02-11T15:14:32.558Z,98137.13
2023-02-11T15:17:32.072Z,98139.97
2023-02-11T15:20:33.202Z,98139.56
2023-02-11T15:23:31.267Z,98144.47
2023-02-11T15:26:29.734Z,98143.00
2023-02-11T15:29:40.763Z,98144.88
2023-02-11T15:32:43.435Z,98150.72
2023-02-11T15:35:41.055Z,98149.94
2023-02-11T15:38:37.963Z,98158.69
2023-02-11T15:41:37.746Z,98162.50
2023-02-11T15:44:34.556Z,98168.22
2023-02-11T15:47:31.408Z,98176.78
2023-02-11T15:50:33.039Z,98168.47
2023-02-11T15:53:42.378Z,98165.81
2023-02-11T15:56:43.347Z,98177.38
2023-02-11T15:59:46.484Z,98166.38
2023-02-11T16:02:46.614Z,98160.72
2023-02-11T16:05:43.403Z,98162.75
2023-02-11T16:08:42.959Z,98156.84
2023-02-11T16:11:48.652Z,98159.69
2023-02-11T16:14:45.539Z,98164.34
2023-02-11T16:17:44.598Z,98162.16
2023-02-11T16:20:46.472Z,98166.81
2023-02-11T16:23:50.043Z,98177.56
2023-02-11T16:26:54.333Z,98166.81
2023-02-11T16:29:52.271Z,98175.16
2023-02-11T16:32:49.076Z,98171.50
2023-02-11T16:35:47.618Z,98179.00
2023-02-11T16:38:44.481Z,98179.41
2023-02-11T16:41:41.397Z,98180.41
2023-02-11T16:44:38.459Z,98174.13
2023-02-11T16:47:36.162Z,98177.56
2023-02-11T16:50:32.980Z,98191.78
2023-02-11T16:53:29.919Z,98188.75
2023-02-11T16:56:26.827Z,98198.69
2023-02-11T16:59:23.985Z,98201.75
2023-02-11T17:02:30.486Z,98199.50
2023-02-11T17:05:27.468Z,98201.16
2023-02-11T17:08:24.424Z,98203.16
2023-02-11T17:11:21.229Z,98198.09
2023-02-11T17:14:19.881Z,98195.47
2023-02-11T17:17:17.517Z,98211.06
2023-02-11T17:20:15.329Z,98211.69
2023-02-11T17:23:12.150Z,98212.09
2023-02-11T17:26:09.758Z,98219.41
2023-02-11T17:29:09.064Z,98218.41
2023-02-11T17:32:06.182Z,98213.91
2023-02-11T17:35:05.826Z,98215.53
2023-02-11T17:38:02.825Z,98211.88
2023-02-11T17:41:02.129Z,98217.97
2023-02-11T17:44:00.908Z,98226.09
2023-02-11T17:46:57.826Z,98220.00
2023-02-11T17:49:54.700Z,98227.31
2023-02-11T17:52:51.662Z,98225.28
2023-02-11T17:55:48.757Z,98228.31
2023-02-11T17:58:46.027Z,98232.59
2023-02-11T18:01:43.791Z,98228.13
2023-02-11T18:04:40.774Z,98234.81
2023-02-11T18:07:37.712Z,98239.88
2023-02-11T18:10:34.740Z,98244.56
2023-02-11T18:13:31.573Z,98234.66
2023-02-11T18:16:29.985Z,98240.09
2023-02-11T18:19:30.470Z,98241.91
2023-02-11T18:22:27.385Z,98247.41
2023-02-11T18:25:24.488Z,98240.94
2023-02-11T18:28:21.480Z,98249.66
2023-02-11T18:31:19.136Z,98247.59
2023-02-11T18:34:16.954Z,98239.50
2023-02-11T18:37:14.306Z,98239.91
2023-02-11T18:40:12.786Z,98243.75
2023-02-11T18:43:09.631Z,98241.31
2023-02-11T18:46:16.055Z,98243.38
2023-02-11T18:49:13.234Z,98249.25
2023-02-11T18:52:10.056Z,98248.63
2023-02-11T18:55:07.728Z,98255.34
2023-02-11T18:58:04.560Z,98270.13
2023-02-11T19:01:01.445Z,98274.84
2023-02-11T19:04:02.846Z,98261.81
2023-02-11T19:07:03.127Z,98262.84
2023-02-11T19:09:59.978Z,98263.69
2023-02-11T19:12:58.889Z,98257.38
2023-02-11T19:15:55.774Z,98263.47
2023-02-11T19:18:52.826Z,98274.84
2023-02-11T19:21:50.183Z,98270.38
2023-02-11T19:24:47.051Z,98270.13
2023-02-11T19:27:43.935Z,98265.09
2023-02-11T19:30:41.303Z,98265.28
2023-02-11T19:33:38.156Z,98261.41
2023-02-11T19:36:35.157Z,98258.19
2023-02-11T19:39:32.211Z,98265.06
2023-02-11T19:42:29.026Z,98272.41
2023-02-11T19:45:26.938Z,98275.66
2023-02-11T19:48:25.362Z,98279.69
2023-02-11T19:51:22.652Z,98279.72
2023-02-11T19:54:20.342Z,98283.56
2023-02-11T19:57:17.402Z,98289.03
2023-02-11T20:00:14.894Z,98288.00
2023-02-11T20:03:11.827Z,98299.56
2023-02-11T20:06:14.402Z,98297.16
2023-02-11T20:09:14.455Z,98299.34
2023-02-11T20:12:12.060Z,98301.63
2023-02-11T20:15:13.021Z,98297.56
2023-02-11T20:18:09.933Z,98304.84
2023-02-11T20:21:25.585Z,98299.00
2023-02-11T20:24:23.737Z,98306.66
2023-02-11T20:27:20.611Z,98306.91
2023-02-11T20:30:17.510Z,98291.88
2023-02-11T20:33:14.746Z,98298.19
2023-02-11T20:36:17.224Z,98295.16
2023-02-11T20:39:17.178Z,98312.56
2023-02-11T20:42:14.998Z,98309.72
2023-02-11T20:45:11.894Z,98316.03
2023-02-11T20:48:08.735Z,98324.97
2023-02-11T20:51:16.505Z,98323.53
2023-02-11T20:54:17.141Z,98325.81
2023-02-11T20:57:13.898Z,98318.25
2023-02-11T21:00:13.124Z,98324.53
2023-02-11T21:03:10.300Z,98319.69
2023-02-11T21:06:08.112Z,98321.13
2023-02-11T21:09:07.406Z,98319.28
2023-02-11T21:12:05.368Z,98320.31
2023-02-11T21:15:05.434Z,98324.56
2023-02-11T21:18:02.242Z,98330.44
2023-02-11T21:21:00.021Z,98328.63
2023-02-11T21:23:58.500Z,98332.91
2023-02-11T21:26:55.341Z,98327.81
2023-02-11T21:29:54.507Z,98332.28
2023-02-11T21:32:51.629Z,98339.81
2023-02-11T21:35:49.080Z,98344.88
2023-02-11T21:38:46.127Z,98343.22
2023-02-11T21:41:43.035Z,98350.13
2023-02-11T21:44:39.849Z,98348.94
2023-02-11T21:47:36.651Z,98353.41
2023-02-11T21:50:33.482Z,98357.47
2023-02-11T21:53:30.286Z,98357.06
2023-02-11T21:56:29.704Z,98364.56
2023-02-11T21:59:26.557Z,98362.53
2023-02-11T22:02:23.450Z,98362.75
2023-02-11T22:05:20.877Z,98362.31
2023-02-11T22:08:20.188Z,98371.66
2023-02-11T22:11:17.378Z,98366.59
2023-02-11T22:14:14.269Z,98366.59
2023-02-11T22:17:11.173Z,98373.50
2023-02-11T22:20:10.081Z,98376.97
2023-02-11T22:23:06.887Z,98382.25
2023-02-11T22:26:11.528Z,98387.50
2023-02-11T22:29:08.358Z,98387.47
2023-02-11T22:32:05.597Z,98383.44
2023-02-11T22:35:02.595Z,98383.88
2023-02-11T22:37:59.393Z,98381.06
2023-02-11T22:40:56.429Z,98389.16
2023-02-11T22:43:53.309Z,98384.47
2023-02-11T22:46:51.876Z,98388.94
2023-02-11T22:49:48.790Z,98386.72
2023-02-11T22:52:45.588Z,98385.88
2023-02-11T22:55:42.402Z,98389.53
2023-02-11T22:58:39.348Z,98381.41
2023-02-11T23:01:37.193Z,98385.28
2023-02-11T23:04:34.144Z,98394.63
2023-02-11T23:07:30.976Z,98399.44
2023-02-11T23:10:27.851Z,98399.28
2023-02-11T23:13:24.658Z,98403.16
2023-02-11T23:16:26.226Z,98408.41
2023-02-11T23:19:23.076Z,98411.84
2023-02-11T23:22:19.879Z,98403.75
2023-02-11T23:25:16.826Z,98409.66
2023-02-11T23:28:13.669Z,98416.16
2023-02-11T23:31:27.307Z,98407.00
2023-02-11T23:34:25.504Z,98413.94
2023-02-11T23:37:22.408Z,98416.38
2023-02-11T23:40:21.227Z,98411.88
2023-02-11T23:43:18.093Z,98409.00
2023-02-11T23:46:14.940Z,98415.13
2023-02-11T23:49:11.775Z,98413.91
2023-02-11T23:52:08.600Z,98409.47
2023-02-11T23:55:06.045Z,98406.19
2023-02-11T23:58:02.849Z,98411.66
